Zeynalabdin Tagiyev — 9HLD8 — position and weather

sailwx.info

Track history (hours):
 
Tides and Currents Weather Stations Pressure Air Temp Water Temp Dewpoint Dewpoint Depression Visibility Wind Speed Wind Dir Waves Ship Positions

Zeynalabdin Tagiyev

Last reported at 2016-May-29 14:20 UTC. Time now 2016-May-29 17:20 UTC.
Position N 39°03' W 009°50'.

Length 140 m; draft 4.5 m.

Type: Cargo ship. MMSI: 256107000.

Date/timePositionNaut miles runAvg speedWind from/ knotsBaromVisibWave heightAir tempDewpointWater temp
2016-May-29 14:20N 39°03' W 009°50'7 6.3
2016-May-29 13:09N 38°56' W 009°51'5 6.4
2016-May-29 12:26N 38°51' W 009°51'7 6.2
2016-May-29 11:19N 38°44' W 009°50'5 5.5
2016-May-29 10:29N 38°40' W 009°49'6 5.8
2016-May-29 09:31N 38°34' W 009°47'31 6.2
2016-May-29 04:31N 38°04' W 009°39'234 6.3
2016-May-27 15:10N 35°59' W 005°32'5 7.8
2016-May-27 14:33N 36°01' W 005°26'7 7.4
2016-May-27 13:33N 36°02' W 005°17'  
2016-May-23 09:21N 36°59' E 013°47'810.0
2016-May-23 08:33N 36°56' E 013°56'9 9.5
2016-May-23 07:34N 36°51' E 014°06'9 9.4
2016-May-23 06:33N 36°46' E 014°17'9 9.5
2016-May-23 05:33N 36°42' E 014°27'9 9.2
2016-May-23 04:33N 36°37' E 014°37'10 9.8
2016-May-23 03:32N 36°35' E 014°49'9 9.3
2016-May-23 02:34N 36°35' E 015°00'9 9.2
2016-May-23 01:33N 36°33' E 015°12'10 9.8
2016-May-23 00:32N 36°35' E 015°24'10 9.8
2016-May-22 23:33N 36°40' E 015°35'10 9.8
2016-May-22 22:33N 36°46' E 015°44'394 8.0
2016-May-20 21:27N 37°21' E 023°55'910.1
2016-May-20 20:33N 37°29' E 024°01'20 9.9
2016-May-20 18:33N 37°44' E 024°17'1010.1
2016-May-20 17:34N 37°51' E 024°27'  
Track history (hours):
 
Tides and Currents Weather Stations Pressure Air Temp Water Temp Dewpoint Dewpoint Depression Visibility Wind Speed Wind Dir Waves Ship Positions

Zeynalabdin Tagiyev

Last reported at 2016-May-29 14:20 UTC. Time now 2016-May-29 17:20 UTC.
Position N 39°03' W 009°50'.

Length 140 m; draft 4.5 m.

Type: Cargo ship. MMSI: 256107000.

Date/timePositionNaut miles runAvg speedWind from/ knotsBaromVisibWave heightAir tempDewpointWater temp
2016-May-29 14:20N 39°03' W 009°50'7 6.3
2016-May-29 13:09N 38°56' W 009°51'5 6.4
2016-May-29 12:26N 38°51' W 009°51'7 6.2
2016-May-29 11:19N 38°44' W 009°50'5 5.5
2016-May-29 10:29N 38°40' W 009°49'6 5.8
2016-May-29 09:31N 38°34' W 009°47'31 6.2
2016-May-29 04:31N 38°04' W 009°39'234 6.3
2016-May-27 15:10N 35°59' W 005°32'5 7.8
2016-May-27 14:33N 36°01' W 005°26'7 7.4
2016-May-27 13:33N 36°02' W 005°17'  
2016-May-23 09:21N 36°59' E 013°47'810.0
2016-May-23 08:33N 36°56' E 013°56'9 9.5
2016-May-23 07:34N 36°51' E 014°06'9 9.4
2016-May-23 06:33N 36°46' E 014°17'9 9.5
2016-May-23 05:33N 36°42' E 014°27'9 9.2
2016-May-23 04:33N 36°37' E 014°37'10 9.8
2016-May-23 03:32N 36°35' E 014°49'9 9.3
2016-May-23 02:34N 36°35' E 015°00'9 9.2
2016-May-23 01:33N 36°33' E 015°12'10 9.8
2016-May-23 00:32N 36°35' E 015°24'10 9.8
2016-May-22 23:33N 36°40' E 015°35'10 9.8
2016-May-22 22:33N 36°46' E 015°44'394 8.0
2016-May-20 21:27N 37°21' E 023°55'910.1
2016-May-20 20:33N 37°29' E 024°01'20 9.9
2016-May-20 18:33N 37°44' E 024°17'1010.1
2016-May-20 17:34N 37°51' E 024°27'  

Dump ship's entire track history